Time;durP1;ratioP1;P1;durP2;ratioP2;P2;SDS_P1;SDS_P2;PMS_P1;PMS_P2;Temp;Humidity;BMP_temperature;BMP_pressure;BME280_temperature;BME280_humidity;BME280_pressure;Samples;Min_cycle;Max_cycle;Signal;HPM_P1;HPM_P2
2022/03/04 00:00:10;;;;;;;;;;;1.80;92.50;;;;;;5091261;28;20465;-42
2022/03/04 00:02:36;;;;;;;;;;;1.80;93.70;;;;;;5091326;28;19999;-43
2022/03/04 00:05:02;;;;;;;;;;;1.80;94.10;;;;;;5092483;28;19908;-41
2022/03/04 00:07:28;;;;;;;;;;;1.80;93.60;;;;;;5093685;28;20382;-41
2022/03/04 00:09:54;;;;;;;;;;;1.70;93.20;;;;;;5093688;28;19915;-41
2022/03/04 00:12:20;;;;;;;;;;;1.70;93.90;;;;;;5093356;28;19999;-41
2022/03/04 00:14:45;;;;;;;;;;;1.70;92.90;;;;;;5096973;28;19955;-41
2022/03/04 00:17:11;;;;;;;;;;;1.60;93.50;;;;;;5097593;28;20007;-41
2022/03/04 00:19:36;;;;;;;;;;;1.60;93.90;;;;;;5097175;28;19916;-41
2022/03/04 00:22:02;;;;;;;;;;;1.60;93.60;;;;;;5097860;28;20304;-42
2022/03/04 00:24:28;;;;;;;;;;;1.50;94.30;;;;;;5097445;28;20002;-40
2022/03/04 00:26:53;;;;;;;;;;;1.60;94.50;;;;;;5096123;28;20350;-41
2022/03/04 00:29:19;;;;;;;;;;;1.50;93.40;;;;;;5096873;28;20441;-41
2022/03/04 00:31:44;;;;;;;;;;;1.50;94.50;;;;;;5097088;28;20361;-41
2022/03/04 00:34:11;;;;;;;;;;;1.60;94.10;;;;;;5096831;28;19912;-42
2022/03/04 00:36:38;;;;;;;;;;;1.50;95.40;;;;;;5097091;28;19919;-41
2022/03/04 00:39:05;;;;;;;;;;;1.50;95.30;;;;;;5096683;28;19912;-41
2022/03/04 00:41:30;;;;;;;;;;;1.50;94.80;;;;;;5097011;28;19964;-39
2022/03/04 00:43:56;;;;;;;;;;;1.50;96.10;;;;;;5096655;28;20033;-40
2022/03/04 00:46:22;;;;;;;;;;;1.50;96.50;;;;;;5096995;28;19908;-40
2022/03/04 00:48:47;;;;;;;;;;;1.50;95.40;;;;;;5096841;28;19908;-42
2022/03/04 00:51:13;;;;;;;;;;;1.50;96.00;;;;;;5096515;28;19908;-41
2022/03/04 00:53:39;;;;;;;;;;;1.40;95.90;;;;;;5096817;28;19915;-40
2022/03/04 00:56:06;;;;;;;;;;;1.40;95.40;;;;;;5096448;28;19908;-41
2022/03/04 00:58:32;;;;;;;;;;;1.40;95.80;;;;;;5096331;28;20362;-41
2022/03/04 01:00:58;;;;;;;;;;;1.40;95.80;;;;;;5095333;28;19912;-41
2022/03/04 01:03:23;;;;;;;;;;;1.30;95.10;;;;;;5095010;28;20002;-41
2022/03/04 01:05:49;;;;;;;;;;;1.20;94.60;;;;;;5096388;28;19915;-41
2022/03/04 01:08:14;;;;;;;;;;;1.20;95.60;;;;;;5096491;28;19939;-41
2022/03/04 01:10:40;;;;;;;;;;;1.20;95.50;;;;;;5096739;28;19998;-41
2022/03/04 01:13:05;;;;;;;;;;;1.10;95.20;;;;;;5096044;28;19961;-41
2022/03/04 01:15:32;;;;;;;;;;;1.10;96.40;;;;;;5095065;28;19908;-41
2022/03/04 01:17:57;;;;;;;;;;;1.10;96.00;;;;;;5095952;28;20286;-41
2022/03/04 01:20:23;;;;;;;;;;;1.10;95.80;;;;;;5096430;28;19912;-41
2022/03/04 01:22:49;;;;;;;;;;;1.10;96.30;;;;;;5095923;28;20370;-42
2022/03/04 01:25:14;;;;;;;;;;;1.10;96.30;;;;;;5095642;28;19908;-41
2022/03/04 01:27:40;;;;;;;;;;;1.00;95.40;;;;;;5095955;28;19908;-42
2022/03/04 01:30:07;;;;;;;;;;;1.00;96.70;;;;;;5096232;28;19974;-41
2022/03/04 01:32:32;;;;;;;;;;;1.10;96.90;;;;;;5096424;28;19915;-41
2022/03/04 01:34:58;;;;;;;;;;;1.00;95.90;;;;;;5096203;28;19908;-41
2022/03/04 01:37:23;;;;;;;;;;;1.00;96.80;;;;;;5096132;28;20290;-41
2022/03/04 01:39:49;;;;;;;;;;;1.00;97.40;;;;;;5095907;28;19916;-40
2022/03/04 01:42:15;;;;;;;;;;;1.10;96.40;;;;;;5094757;28;20414;-40
2022/03/04 01:44:40;;;;;;;;;;;1.00;96.40;;;;;;5095918;28;19915;-40
2022/03/04 01:47:06;;;;;;;;;;;1.00;96.30;;;;;;5095877;28;19939;-40
2022/03/04 01:49:32;;;;;;;;;;;0.90;96.70;;;;;;5095466;28;19923;-40
2022/03/04 01:51:58;;;;;;;;;;;0.80;96.80;;;;;;5095513;28;19984;-40
2022/03/04 01:54:23;;;;;;;;;;;0.80;97.70;;;;;;5096056;28;19908;-41
2022/03/04 01:56:49;;;;;;;;;;;0.80;96.20;;;;;;5095714;28;19975;-41
2022/03/04 01:59:14;;;;;;;;;;;0.90;97.90;;;;;;5095656;28;19916;-41
2022/03/04 02:01:40;;;;;;;;;;;0.90;97.90;;;;;;5095307;28;20377;-40
2022/03/04 02:04:05;;;;;;;;;;;0.80;97.40;;;;;;5095173;28;20472;-40
2022/03/04 02:06:31;;;;;;;;;;;0.90;97.90;;;;;;5095280;28;19915;-41
2022/03/04 02:08:56;;;;;;;;;;;0.80;98.00;;;;;;5095553;28;19912;-41
2022/03/04 02:11:22;;;;;;;;;;;0.90;97.40;;;;;;5095482;28;20281;-41
2022/03/04 02:13:47;;;;;;;;;;;0.90;99.10;;;;;;5095402;28;20370;-41
2022/03/04 02:16:24;;;;;;;;;;;0.90;97.80;;;;;;5095341;28;19954;-41
2022/03/04 02:18:49;;;;;;;;;;;0.90;97.60;;;;;;5094914;28;19919;-40
2022/03/04 02:21:16;;;;;;;;;;;0.80;97.80;;;;;;5094907;28;19912;-40
2022/03/04 02:23:42;;;;;;;;;;;0.80;97.80;;;;;;5095204;28;19954;-40
2022/03/04 02:26:07;;;;;;;;;;;0.80;98.60;;;;;;5095132;28;19912;-40
2022/03/04 02:28:33;;;;;;;;;;;0.80;98.00;;;;;;5094763;28;20346;-41
2022/03/04 02:30:58;;;;;;;;;;;0.80;98.60;;;;;;5095282;28;19934;-41
2022/03/04 02:33:24;;;;;;;;;;;0.80;98.80;;;;;;5094729;28;20311;-41
2022/03/04 02:35:49;;;;;;;;;;;0.80;99.60;;;;;;5094094;28;20365;-41
2022/03/04 02:38:15;;;;;;;;;;;0.80;98.80;;;;;;5094858;28;19912;-40
2022/03/04 02:40:40;;;;;;;;;;;0.80;98.90;;;;;;5094573;28;19935;-40
2022/03/04 02:43:06;;;;;;;;;;;0.80;99.90;;;;;;5094885;28;19920;-40
2022/03/04 02:45:32;;;;;;;;;;;0.70;99.90;;;;;;5094760;28;19908;-41
2022/03/04 02:47:58;;;;;;;;;;;0.70;99.90;;;;;;5094523;28;19998;-41
2022/03/04 02:50:23;;;;;;;;;;;0.70;99.90;;;;;;5094747;28;19947;-41
2022/03/04 02:52:49;;;;;;;;;;;0.80;99.90;;;;;;5094312;28;19912;-41
2022/03/04 02:55:14;;;;;;;;;;;0.80;99.90;;;;;;5094664;28;20383;-41
2022/03/04 02:57:41;;;;;;;;;;;0.80;99.90;;;;;;5094260;28;20301;-41
2022/03/04 03:00:07;;;;;;;;;;;0.80;99.90;;;;;;5094588;28;19919;-40
2022/03/04 03:02:33;;;;;;;;;;;0.70;99.90;;;;;;5094536;28;20422;-40
2022/03/04 03:04:58;;;;;;;;;;;0.70;99.90;;;;;;5094211;28;19912;-41
2022/03/04 03:07:24;;;;;;;;;;;0.60;99.90;;;;;;5094517;28;20358;-41
2022/03/04 03:09:49;;;;;;;;;;;0.60;99.90;;;;;;5094118;28;19908;-41
2022/03/04 03:12:15;;;;;;;;;;;0.60;99.90;;;;;;5094065;28;19908;-41
2022/03/04 03:14:40;;;;;;;;;;;0.60;99.90;;;;;;5094687;28;20011;-41
2022/03/04 03:17:06;;;;;;;;;;;0.60;99.90;;;;;;5094114;28;19908;-41
2022/03/04 03:19:31;;;;;;;;;;;0.60;99.90;;;;;;5094287;28;19913;-40
2022/03/04 03:21:57;;;;;;;;;;;0.60;99.90;;;;;;5094276;28;19962;-41
2022/03/04 03:24:22;;;;;;;;;;;0.50;99.90;;;;;;5094209;28;19909;-40
2022/03/04 03:26:48;;;;;;;;;;;0.40;99.90;;;;;;5093046;28;20414;-41
2022/03/04 03:29:13;;;;;;;;;;;0.50;99.90;;;;;;5093684;28;20367;-40
2022/03/04 03:31:39;;;;;;;;;;;0.50;99.90;;;;;;5093882;28;20011;-40
2022/03/04 03:34:04;;;;;;;;;;;0.50;99.90;;;;;;5093864;28;19948;-40
2022/03/04 03:36:30;;;;;;;;;;;0.40;99.90;;;;;;5094144;28;19908;-40
2022/03/04 03:38:55;;;;;;;;;;;0.40;99.90;;;;;;5093708;28;19912;-41
2022/03/04 03:41:21;;;;;;;;;;;0.40;99.90;;;;;;5093795;28;19912;-41
2022/03/04 03:43:46;;;;;;;;;;;0.30;99.90;;;;;;5094018;28;19958;-41
2022/03/04 03:46:12;;;;;;;;;;;0.40;99.90;;;;;;5094289;28;19958;-41
2022/03/04 03:48:40;;;;;;;;;;;0.40;99.90;;;;;;5097928;28;19995;-41
2022/03/04 03:51:06;;;;;;;;;;;0.40;99.90;;;;;;5098107;28;19908;-40
2022/03/04 03:53:32;;;;;;;;;;;0.30;99.90;;;;;;5098057;28;20010;-41
2022/03/04 03:55:57;;;;;;;;;;;0.40;99.90;;;;;;5097808;28;19908;-41
2022/03/04 03:58:23;;;;;;;;;;;0.40;99.90;;;;;;5097600;28;20278;-41
2022/03/04 04:00:48;;;;;;;;;;;0.30;99.90;;;;;;5098110;28;20308;-41
2022/03/04 04:03:14;;;;;;;;;;;0.20;99.90;;;;;;5098212;28;19912;-41
2022/03/04 04:05:40;;;;;;;;;;;0.20;99.90;;;;;;5097663;28;19908;-41
2022/03/04 04:08:05;;;;;;;;;;;0.20;99.90;;;;;;5097565;28;19908;-41
2022/03/04 04:10:31;;;;;;;;;;;0.30;99.90;;;;;;5096521;28;19998;-40
2022/03/04 04:12:57;;;;;;;;;;;0.20;99.90;;;;;;5097382;28;20396;-41
2022/03/04 04:15:22;;;;;;;;;;;0.20;99.90;;;;;;5097701;28;20247;-41
2022/03/04 04:17:48;;;;;;;;;;;0.10;99.90;;;;;;5097523;28;20354;-41
2022/03/04 04:20:13;;;;;;;;;;;0.20;99.90;;;;;;5097238;28;19965;-40
2022/03/04 04:22:39;;;;;;;;;;;0.20;99.90;;;;;;5097496;28;19995;-40
2022/03/04 04:25:05;;;;;;;;;;;0.20;99.90;;;;;;5097233;28;19912;-41
2022/03/04 04:27:30;;;;;;;;;;;0.20;99.90;;;;;;5097332;28;19908;-41
2022/03/04 04:29:56;;;;;;;;;;;0.10;99.90;;;;;;5097495;28;19920;-40
2022/03/04 04:32:22;;;;;;;;;;;0.10;99.90;;;;;;5097335;28;19953;-41
2022/03/04 04:34:47;;;;;;;;;;;0.10;99.90;;;;;;5097338;28;19912;-41
2022/03/04 04:37:13;;;;;;;;;;;0.10;99.90;;;;;;5097172;28;20404;-41
2022/03/04 04:39:38;;;;;;;;;;;0.10;99.90;;;;;;5097120;28;19919;-41
2022/03/04 04:42:05;;;;;;;;;;;0.10;99.90;;;;;;5096869;28;19912;-41
2022/03/04 04:44:31;;;;;;;;;;;0.10;99.90;;;;;;5096852;28;20251;-40
2022/03/04 04:46:56;;;;;;;;;;;0.10;99.90;;;;;;5096716;28;19919;-41
2022/03/04 04:49:23;;;;;;;;;;;0.00;99.90;;;;;;5097019;28;19908;-41
2022/03/04 04:51:49;;;;;;;;;;;0.00;99.90;;;;;;5096957;28;20258;-41
2022/03/04 04:54:14;;;;;;;;;;;0.00;99.90;;;;;;5096542;28;19908;-41
2022/03/04 04:56:40;;;;;;;;;;;0.00;99.90;;;;;;5096707;28;19908;-41
2022/03/04 04:59:06;;;;;;;;;;;-0.10;99.90;;;;;;5095802;28;19912;-41
2022/03/04 05:01:31;;;;;;;;;;;-0.10;99.90;;;;;;5096702;28;19919;-41
2022/03/04 05:03:57;;;;;;;;;;;0.00;99.90;;;;;;5095261;28;19912;-41
2022/03/04 05:06:22;;;;;;;;;;;0.00;99.90;;;;;;5096596;28;19961;-40
2022/03/04 05:08:48;;;;;;;;;;;-0.10;99.90;;;;;;5096577;28;19954;-41
2022/03/04 05:11:13;;;;;;;;;;;-0.10;99.90;;;;;;5096590;28;20263;-41
2022/03/04 05:13:39;;;;;;;;;;;-0.10;99.90;;;;;;5096718;28;19914;-41
2022/03/04 05:16:04;;;;;;;;;;;-0.10;99.90;;;;;;5096283;28;20053;-41
2022/03/04 05:18:31;;;;;;;;;;;-0.10;99.90;;;;;;5095956;28;19915;-41
2022/03/04 05:20:57;;;;;;;;;;;-0.20;99.90;;;;;;5096352;28;20243;-40
2022/03/04 05:26:06;;;;;;;;;;;-0.20;99.90;;;;;;5095955;28;20363;-42
2022/03/04 05:28:32;;;;;;;;;;;-0.20;99.90;;;;;;5096165;28;19995;-41
2022/03/04 05:30:58;;;;;;;;;;;-0.20;99.90;;;;;;5095793;28;20290;-41
2022/03/04 05:33:23;;;;;;;;;;;-0.20;99.90;;;;;;5094620;28;19908;-41
2022/03/04 05:35:49;;;;;;;;;;;-0.20;99.90;;;;;;5095885;28;19972;-41
2022/03/04 05:38:15;;;;;;;;;;;-0.20;99.90;;;;;;5095643;28;19912;-41
2022/03/04 05:40:40;;;;;;;;;;;-0.30;99.90;;;;;;5095737;28;19919;-41
2022/03/04 05:43:07;;;;;;;;;;;-0.20;99.90;;;;;;5095468;28;19947;-41
2022/03/04 05:45:32;;;;;;;;;;;-0.30;99.90;;;;;;5095415;28;19998;-41
2022/03/04 05:47:58;;;;;;;;;;;-0.30;99.90;;;;;;5096067;28;20310;-41
2022/03/04 05:50:23;;;;;;;;;;;-0.30;99.90;;;;;;5095112;28;20358;-42
2022/03/04 05:52:49;;;;;;;;;;;-0.20;99.90;;;;;;5095243;28;19909;-41
2022/03/04 05:55:16;;;;;;;;;;;-0.20;99.90;;;;;;5095536;28;19991;-40
2022/03/04 05:57:41;;;;;;;;;;;-0.20;99.90;;;;;;5095119;28;19916;-41
2022/03/04 06:00:08;;;;;;;;;;;-0.30;99.90;;;;;;5095549;28;20286;-40
2022/03/04 06:02:33;;;;;;;;;;;-0.20;99.90;;;;;;5095336;28;20251;-40
2022/03/04 06:04:59;;;;;;;;;;;-0.20;99.90;;;;;;5094121;28;19908;-41
2022/03/04 06:07:25;;;;;;;;;;;-0.20;99.90;;;;;;5095006;28;20022;-41
2022/03/04 06:09:50;;;;;;;;;;;-0.20;99.90;;;;;;5093294;28;20052;-41
2022/03/04 06:12:16;;;;;;;;;;;-0.10;99.90;;;;;;5093159;28;19915;-41
2022/03/04 06:14:41;;;;;;;;;;;-0.10;99.90;;;;;;5093787;28;20359;-42
2022/03/04 06:17:07;;;;;;;;;;;0.00;99.90;;;;;;5094893;28;19912;-42
2022/03/04 06:19:33;;;;;;;;;;;0.00;99.90;;;;;;5095001;28;20408;-40
2022/03/04 06:21:58;;;;;;;;;;;0.10;99.90;;;;;;5094981;28;20381;-40
2022/03/04 06:24:24;;;;;;;;;;;0.20;99.90;;;;;;5094918;28;19909;-41
2022/03/04 06:26:49;;;;;;;;;;;0.30;99.90;;;;;;5094802;28;19937;-40
2022/03/04 06:29:15;;;;;;;;;;;0.30;99.90;;;;;;5094658;28;19943;-40
2022/03/04 06:31:41;;;;;;;;;;;0.10;99.90;;;;;;5089718;28;20278;-41
2022/03/04 06:34:06;;;;;;;;;;;0.10;99.90;;;;;;5111285;27;19913;-41
2022/03/04 06:36:32;;;;;;;;;;;0.20;99.90;;;;;;5074556;28;19916;-41
2022/03/04 06:38:57;;;;;;;;;;;0.30;99.90;;;;;;5075800;28;19916;-42
2022/03/04 06:41:23;;;;;;;;;;;0.40;99.90;;;;;;5093932;28;19919;-44
2022/03/04 06:43:48;;;;;;;;;;;0.40;99.90;;;;;;5094219;28;19915;-42
2022/03/04 06:46:14;;;;;;;;;;;0.60;99.90;;;;;;5093769;28;19912;-41
2022/03/04 06:48:40;;;;;;;;;;;0.70;99.90;;;;;;5093443;28;19962;-41
2022/03/04 06:51:06;;;;;;;;;;;0.60;99.90;;;;;;5093760;28;19915;-41
2022/03/04 06:53:31;;;;;;;;;;;0.80;99.90;;;;;;5092418;28;19914;-41
2022/03/04 06:55:57;;;;;;;;;;;0.60;99.90;;;;;;5093663;28;19916;-41
2022/03/04 06:58:22;;;;;;;;;;;0.80;99.90;;;;;;5093574;28;19912;-41
2022/03/04 07:00:48;;;;;;;;;;;0.90;99.90;;;;;;5093388;28;20423;-41
2022/03/04 07:03:13;;;;;;;;;;;0.90;99.90;;;;;;5093594;28;19962;-42
2022/03/04 07:05:39;;;;;;;;;;;1.00;99.90;;;;;;5092411;28;19965;-42
2022/03/04 07:08:11;;;;;;;;;;;1.20;99.90;;;;;;5105107;28;19915;-41
2022/03/04 07:10:37;;;;;;;;;;;1.20;99.90;;;;;;5113943;28;20315;-41
2022/03/04 07:13:03;;;;;;;;;;;1.20;99.90;;;;;;5113772;28;19947;-41
2022/03/04 07:15:29;;;;;;;;;;;1.30;99.90;;;;;;5113798;28;19952;-42
2022/03/04 07:17:54;;;;;;;;;;;1.40;99.90;;;;;;5111121;28;19973;-49
2022/03/04 07:20:20;;;;;;;;;;;1.50;99.90;;;;;;5090221;28;20282;-42
2022/03/04 07:22:45;;;;;;;;;;;1.70;99.90;;;;;;5092993;28;20228;-41
2022/03/04 07:25:12;;;;;;;;;;;1.80;99.90;;;;;;5093483;28;20252;-40
2022/03/04 07:27:39;;;;;;;;;;;1.70;99.90;;;;;;5093814;28;19908;-40
2022/03/04 07:30:06;;;;;;;;;;;1.70;99.60;;;;;;5093706;28;19927;-40
2022/03/04 07:32:32;;;;;;;;;;;1.60;99.70;;;;;;5094522;28;19924;-41
2022/03/04 07:34:57;;;;;;;;;;;2.00;99.90;;;;;;5104810;28;19958;-41
2022/03/04 07:37:23;;;;;;;;;;;2.20;99.90;;;;;;5093454;28;19943;-42
2022/03/04 07:39:48;;;;;;;;;;;2.40;99.90;;;;;;5105332;28;20010;-43
2022/03/04 07:42:14;;;;;;;;;;;2.40;99.90;;;;;;5093803;28;19959;-42
2022/03/04 07:44:39;;;;;;;;;;;2.60;98.20;;;;;;5093243;28;19960;-42
2022/03/04 07:47:06;;;;;;;;;;;2.40;97.40;;;;;;5093128;28;19931;-41
2022/03/04 07:49:31;;;;;;;;;;;2.60;98.70;;;;;;5096779;28;19947;-41
2022/03/04 07:51:57;;;;;;;;;;;2.70;98.70;;;;;;5101892;28;19912;-42
2022/03/04 07:54:23;;;;;;;;;;;2.70;97.50;;;;;;5093131;28;19915;-41
2022/03/04 07:56:48;;;;;;;;;;;2.70;97.70;;;;;;5111139;28;19998;-41
2022/03/04 07:59:14;;;;;;;;;;;2.90;98.60;;;;;;5113625;28;20270;-42
2022/03/04 08:01:40;;;;;;;;;;;2.90;97.30;;;;;;5102742;28;20000;-42
2022/03/04 08:04:06;;;;;;;;;;;2.80;97.60;;;;;;5092218;28;20336;-42
2022/03/04 08:06:32;;;;;;;;;;;2.90;98.90;;;;;;5092081;28;19908;-42
2022/03/04 08:08:57;;;;;;;;;;;3.10;99.40;;;;;;5095902;28;19912;-42
2022/03/04 08:11:23;;;;;;;;;;;3.20;97.40;;;;;;5091701;28;19931;-41
2022/03/04 08:13:48;;;;;;;;;;;3.10;97.10;;;;;;5093069;28;19909;-42
2022/03/04 08:16:14;;;;;;;;;;;3.00;95.90;;;;;;5092851;28;20341;-41
2022/03/04 08:18:39;;;;;;;;;;;2.90;97.90;;;;;;5092422;28;20436;-41
2022/03/04 08:21:05;;;;;;;;;;;3.20;97.30;;;;;;5093025;28;19912;-42
2022/03/04 08:23:31;;;;;;;;;;;3.40;97.00;;;;;;5093099;28;19908;-41
2022/03/04 08:25:57;;;;;;;;;;;3.40;96.00;;;;;;5090182;28;19916;-41
2022/03/04 08:28:23;;;;;;;;;;;3.30;95.50;;;;;;5089898;28;20009;-41
2022/03/04 08:30:48;;;;;;;;;;;3.20;96.00;;;;;;5091348;28;19915;-40
2022/03/04 08:33:14;;;;;;;;;;;3.20;95.60;;;;;;5091017;28;19908;-41
2022/03/04 08:35:39;;;;;;;;;;;3.40;95.10;;;;;;5085247;28;20278;-41
2022/03/04 08:38:06;;;;;;;;;;;3.50;95.60;;;;;;5104212;28;19907;-41
2022/03/04 08:40:31;;;;;;;;;;;3.40;97.00;;;;;;5097502;28;19961;-42
2022/03/04 08:42:57;;;;;;;;;;;3.80;97.40;;;;;;5092043;28;20005;-41
2022/03/04 08:45:23;;;;;;;;;;;3.70;95.30;;;;;;5086681;28;19916;-41
2022/03/04 08:47:48;;;;;;;;;;;3.70;95.50;;;;;;5076904;28;20328;-41
2022/03/04 08:50:15;;;;;;;;;;;3.80;95.80;;;;;;5078699;28;19916;-41
2022/03/04 08:52:40;;;;;;;;;;;3.90;95.30;;;;;;5109544;27;19912;-40
2022/03/04 08:55:07;;;;;;;;;;;3.60;93.90;;;;;;5077685;28;20253;-41
2022/03/04 08:57:33;;;;;;;;;;;3.60;95.80;;;;;;5081035;28;19923;-40
2022/03/04 08:59:58;;;;;;;;;;;3.80;96.20;;;;;;5076873;28;20355;-41
2022/03/04 09:02:24;;;;;;;;;;;4.10;96.00;;;;;;5124387;27;20010;-41
2022/03/04 09:04:50;;;;;;;;;;;4.30;96.10;;;;;;5094478;28;20307;-41
2022/03/04 09:07:16;;;;;;;;;;;4.30;94.40;;;;;;5089302;28;19935;-41
2022/03/04 09:09:43;;;;;;;;;;;4.10;94.70;;;;;;5080847;28;20339;-40
2022/03/04 09:12:09;;;;;;;;;;;4.20;94.00;;;;;;5095500;28;19915;-41
2022/03/04 09:14:35;;;;;;;;;;;4.20;94.90;;;;;;5090670;28;19912;-40
2022/03/04 09:17:01;;;;;;;;;;;4.10;94.70;;;;;;5075529;28;20000;-41
2022/03/04 09:19:27;;;;;;;;;;;4.70;95.40;;;;;;5080569;28;19969;-42
2022/03/04 09:21:52;;;;;;;;;;;4.80;95.00;;;;;;5093126;28;19920;-41
2022/03/04 09:24:18;;;;;;;;;;;4.60;92.50;;;;;;5093469;28;19912;-41
2022/03/04 09:26:43;;;;;;;;;;;4.50;92.80;;;;;;5077132;28;19919;-42
2022/03/04 09:29:09;;;;;;;;;;;4.50;93.10;;;;;;5074936;28;20015;-42
2022/03/04 09:31:35;;;;;;;;;;;4.60;92.70;;;;;;5088878;28;20401;-39
2022/03/04 09:34:00;;;;;;;;;;;4.60;92.60;;;;;;5092341;28;20293;-40
2022/03/04 09:36:26;;;;;;;;;;;5.00;94.80;;;;;;5083854;28;20271;-41
2022/03/04 09:38:51;;;;;;;;;;;5.20;94.60;;;;;;5084698;28;20354;-41
2022/03/04 09:41:18;;;;;;;;;;;4.90;92.60;;;;;;5092541;28;19924;-41
2022/03/04 09:43:44;;;;;;;;;;;5.10;94.00;;;;;;5092820;28;19912;-40
2022/03/04 09:46:10;;;;;;;;;;;5.30;95.20;;;;;;5093500;28;19908;-42
2022/03/04 09:48:40;;;;;;;;;;;5.50;95.00;;;;;;5078182;28;19912;-40
2022/03/04 09:51:06;;;;;;;;;;;5.80;95.00;;;;;;5082146;28;19931;-41
2022/03/04 09:53:31;;;;;;;;;;;5.70;92.90;;;;;;5087517;28;20232;-40
2022/03/04 09:55:57;;;;;;;;;;;5.60;92.70;;;;;;5076026;28;19971;-41
2022/03/04 09:58:23;;;;;;;;;;;5.90;93.60;;;;;;5076378;28;20015;-41
2022/03/04 10:00:49;;;;;;;;;;;6.10;94.40;;;;;;5087173;28;19992;-40
2022/03/04 10:03:29;;;;;;;;;;;6.20;94.30;;;;;;5090364;28;19966;-41
2022/03/04 10:05:56;;;;;;;;;;;5.80;92.30;;;;;;5075387;28;19918;-42
2022/03/04 10:08:22;;;;;;;;;;;5.20;92.30;;;;;;5075529;28;19912;-42
2022/03/04 10:10:49;;;;;;;;;;;5.30;92.10;;;;;;5084525;28;19923;-42
2022/03/04 10:13:14;;;;;;;;;;;5.30;92.90;;;;;;5092988;28;19920;-41
2022/03/04 10:15:52;;;;;;;;;;;5.50;91.70;;;;;;5089180;28;20258;-41
2022/03/04 10:18:25;;;;;;;;;;;5.80;93.60;;;;;;5088866;28;19926;-40
2022/03/04 10:20:50;;;;;;;;;;;6.10;93.40;;;;;;5082096;28;20390;-40
2022/03/04 10:23:20;;;;;;;;;;;6.30;92.80;;;;;;5073892;28;19952;-41
2022/03/04 10:25:48;;;;;;;;;;;6.60;93.30;;;;;;5075342;28;19916;-41
2022/03/04 10:28:14;;;;;;;;;;;6.90;93.00;;;;;;5075645;28;19964;-42
2022/03/04 10:30:42;;;;;;;;;;;6.20;89.20;;;;;;5089915;28;19962;-41
2022/03/04 10:33:26;;;;;;;;;;;6.10;90.30;;;;;;5085926;28;19919;-40
2022/03/04 10:36:08;;;;;;;;;;;5.80;90.10;;;;;;5073824;28;19912;-41
2022/03/04 10:38:34;;;;;;;;;;;6.10;91.00;;;;;;5105622;28;19913;-41
2022/03/04 10:41:00;;;;;;;;;;;6.20;87.50;;;;;;5072812;28;19919;-41
2022/03/04 10:43:30;;;;;;;;;;;6.30;88.20;;;;;;5074623;28;19912;-41
2022/03/04 10:46:03;;;;;;;;;;;6.40;90.10;;;;;;5089768;28;19931;-40
2022/03/04 10:48:30;;;;;;;;;;;6.60;87.50;;;;;;5074608;28;19995;-41
2022/03/04 10:50:57;;;;;;;;;;;7.00;91.90;;;;;;5083059;28;19908;-41
2022/03/04 10:53:22;;;;;;;;;;;7.10;90.10;;;;;;5074555;28;19920;-41
2022/03/04 10:55:49;;;;;;;;;;;7.40;89.90;;;;;;5074251;28;20294;-41
2022/03/04 10:58:21;;;;;;;;;;;7.30;86.40;;;;;;5074637;28;20274;-41
2022/03/04 11:00:57;;;;;;;;;;;7.10;89.90;;;;;;5082482;28;20305;-41
2022/03/04 11:03:23;;;;;;;;;;;7.10;90.40;;;;;;5090831;28;20322;-41
2022/03/04 11:05:50;;;;;;;;;;;7.40;90.60;;;;;;5103343;28;19908;-41
2022/03/04 11:08:16;;;;;;;;;;;7.60;90.20;;;;;;5088088;28;19912;-42
2022/03/04 11:10:42;;;;;;;;;;;7.10;86.20;;;;;;5089559;28;19988;-42
2022/03/04 11:13:09;;;;;;;;;;;7.10;87.80;;;;;;5090667;28;20415;-41
2022/03/04 11:15:35;;;;;;;;;;;6.60;84.30;;;;;;5078779;28;20416;-42
2022/03/04 11:18:02;;;;;;;;;;;6.50;85.70;;;;;;5087651;28;19954;-42
2022/03/04 11:20:27;;;;;;;;;;;6.70;86.30;;;;;;5073740;28;19927;-41
2022/03/04 11:22:53;;;;;;;;;;;6.80;82.70;;;;;;5073926;28;19961;-41
2022/03/04 11:25:21;;;;;;;;;;;6.70;83.00;;;;;;5090155;28;19908;-40
2022/03/04 11:27:48;;;;;;;;;;;6.70;85.30;;;;;;5075479;28;19916;-41
2022/03/04 11:30:28;;;;;;;;;;;7.00;84.30;;;;;;5086251;28;20188;-41
2022/03/04 11:33:00;;;;;;;;;;;7.00;85.60;;;;;;5091248;28;19912;-41
2022/03/04 11:35:41;;;;;;;;;;;6.70;87.70;;;;;;5091446;28;20301;-42
2022/03/04 11:38:07;;;;;;;;;;;7.10;87.30;;;;;;5088283;28;19935;-41
2022/03/04 11:40:35;;;;;;;;;;;6.50;82.90;;;;;;5089289;28;20388;-41
2022/03/04 11:43:00;;;;;;;;;;;6.50;85.10;;;;;;5091574;28;20021;-42
2022/03/04 11:45:33;;;;;;;;;;;6.10;83.10;;;;;;5095603;28;20358;-42
2022/03/04 11:48:06;;;;;;;;;;;6.00;85.30;;;;;;5091588;28;19992;-45
2022/03/04 11:50:34;;;;;;;;;;;6.70;85.70;;;;;;5085872;28;19919;-42
2022/03/04 11:53:13;;;;;;;;;;;6.80;83.80;;;;;;5090557;28;19919;-43
2022/03/04 11:55:38;;;;;;;;;;;7.20;85.70;;;;;;5087894;28;19960;-42
2022/03/04 11:58:04;;;;;;;;;;;7.50;88.00;;;;;;5083715;28;19938;-44
2022/03/04 12:00:31;;;;;;;;;;;7.80;86.80;;;;;;5085138;28;19963;-44
2022/03/04 12:02:58;;;;;;;;;;;8.10;87.90;;;;;;5082508;28;19938;-42
2022/03/04 12:05:29;;;;;;;;;;;8.10;83.60;;;;;;5088840;28;19912;-42
2022/03/04 12:07:55;;;;;;;;;;;8.10;84.50;;;;;;5094525;28;19912;-45
2022/03/04 12:10:22;;;;;;;;;;;8.20;85.80;;;;;;5091044;28;19999;-45
2022/03/04 12:13:04;;;;;;;;;;;8.10;85.90;;;;;;5097300;28;19962;-41
2022/03/04 12:15:39;;;;;;;;;;;8.30;86.00;;;;;;5078922;28;19912;-41
2022/03/04 12:18:36;;;;;;;;;;;8.20;84.60;;;;;;5077873;28;19959;-42
2022/03/04 12:21:03;;;;;;;;;;;8.30;86.90;;;;;;5074738;28;20007;-43
2022/03/04 12:23:45;;;;;;;;;;;8.30;83.30;;;;;;5076987;28;19954;-42
2022/03/04 12:26:12;;;;;;;;;;;8.00;80.50;;;;;;5079763;28;19916;-43
2022/03/04 12:28:45;;;;;;;;;;;7.40;80.30;;;;;;5095045;28;20378;-42
2022/03/04 12:31:11;;;;;;;;;;;7.00;79.70;;;;;;5093006;28;19977;-43
2022/03/04 12:33:44;;;;;;;;;;;6.60;81.50;;;;;;5090332;28;20502;-43
2022/03/04 12:36:11;;;;;;;;;;;6.40;82.50;;;;;;5109051;28;20363;-43
2022/03/04 12:38:39;;;;;;;;;;;6.90;83.60;;;;;;5096367;28;20022;-43
2022/03/04 12:41:05;;;;;;;;;;;7.30;82.00;;;;;;5095116;28;20377;-42
2022/03/04 12:43:31;;;;;;;;;;;7.20;79.50;;;;;;5096099;28;19915;-44
2022/03/04 12:45:56;;;;;;;;;;;7.40;79.40;;;;;;5096580;28;20274;-41
2022/03/04 12:48:22;;;;;;;;;;;6.80;78.90;;;;;;5094671;28;19912;-41
2022/03/04 12:50:48;;;;;;;;;;;6.40;78.50;;;;;;5110994;28;19915;-43
2022/03/04 12:53:21;;;;;;;;;;;6.90;82.10;;;;;;5099058;28;19919;-43
2022/03/04 12:55:50;;;;;;;;;;;7.10;78.30;;;;;;5095990;28;20412;-42
2022/03/04 12:58:16;;;;;;;;;;;6.40;77.00;;;;;;5113831;28;19908;-42
2022/03/04 13:00:42;;;;;;;;;;;6.70;78.40;;;;;;5095799;28;19923;-42
2022/03/04 13:03:17;;;;;;;;;;;6.90;80.50;;;;;;5095607;28;19931;-42
2022/03/04 13:05:44;;;;;;;;;;;6.60;79.60;;;;;;5095761;28;19915;-42
2022/03/04 13:08:12;;;;;;;;;;;6.70;79.60;;;;;;5095742;28;19915;-41
2022/03/04 13:10:38;;;;;;;;;;;6.30;80.10;;;;;;5095631;28;20016;-42
2022/03/04 13:13:04;;;;;;;;;;;6.70;80.10;;;;;;5095491;28;20347;-43
2022/03/04 13:15:30;;;;;;;;;;;6.40;80.10;;;;;;5095981;28;20045;-42
2022/03/04 13:17:56;;;;;;;;;;;6.60;80.10;;;;;;5095447;28;19923;-42
2022/03/04 13:20:22;;;;;;;;;;;7.20;84.90;;;;;;5094423;28;19927;-41
2022/03/04 13:23:00;;;;;;;;;;;7.60;83.20;;;;;;5095433;28;19958;-42
2022/03/04 13:25:29;;;;;;;;;;;6.90;78.10;;;;;;5095874;28;19908;-41
2022/03/04 13:27:54;;;;;;;;;;;6.90;79.60;;;;;;5095646;28;19951;-41
2022/03/04 13:30:20;;;;;;;;;;;7.30;83.50;;;;;;5095609;28;19962;-41
2022/03/04 13:32:46;;;;;;;;;;;7.70;79.80;;;;;;5095324;28;19909;-41
2022/03/04 13:35:14;;;;;;;;;;;7.20;78.70;;;;;;5094970;28;19908;-42
2022/03/04 13:37:40;;;;;;;;;;;7.10;82.50;;;;;;5094828;28;20281;-41
2022/03/04 13:40:07;;;;;;;;;;;6.70;80.10;;;;;;5095427;28;20218;-42
2022/03/04 13:42:43;;;;;;;;;;;6.10;79.70;;;;;;5094993;28;19920;-41
2022/03/04 13:45:13;;;;;;;;;;;6.20;79.80;;;;;;5095028;28;19939;-41
2022/03/04 13:47:55;;;;;;;;;;;6.40;82.20;;;;;;5094788;28;20270;-42
2022/03/04 13:50:28;;;;;;;;;;;6.60;79.80;;;;;;5094809;28;19909;-41
2022/03/04 13:52:55;;;;;;;;;;;6.90;80.00;;;;;;5094906;28;19915;-42
2022/03/04 13:55:39;;;;;;;;;;;6.90;79.80;;;;;;5094858;28;19908;-40
2022/03/04 13:58:13;;;;;;;;;;;6.50;79.30;;;;;;5094446;28;20422;-42
2022/03/04 14:00:40;;;;;;;;;;;6.50;80.50;;;;;;5086317;28;19916;-41
2022/03/04 14:03:07;;;;;;;;;;;6.40;79.00;;;;;;5114826;28;19926;-43
2022/03/04 14:05:33;;;;;;;;;;;6.40;77.20;;;;;;5101443;28;19922;-42
2022/03/04 14:08:02;;;;;;;;;;;6.10;79.60;;;;;;5081516;28;20319;-42
2022/03/04 14:10:28;;;;;;;;;;;6.40;77.70;;;;;;5089381;28;20007;-43
2022/03/04 14:12:53;;;;;;;;;;;6.10;79.10;;;;;;5106119;28;19958;-41
2022/03/04 14:15:19;;;;;;;;;;;6.20;80.10;;;;;;5092894;28;19919;-41
2022/03/04 14:17:58;;;;;;;;;;;6.20;78.40;;;;;;5094453;28;19915;-42
2022/03/04 14:20:25;;;;;;;;;;;6.40;78.30;;;;;;5093395;28;19970;-41
2022/03/04 14:22:50;;;;;;;;;;;6.00;78.00;;;;;;5092795;28;19920;-41
2022/03/04 14:25:16;;;;;;;;;;;6.10;77.10;;;;;;5082775;28;19915;-40
2022/03/04 14:27:43;;;;;;;;;;;6.10;77.50;;;;;;5086624;28;20416;-42